Time;durP1;ratioP1;P1;durP2;ratioP2;P2;SDS_P1;SDS_P2;PMS_P1;PMS_P2;Temp;Humidity;BMP_temperature;BMP_pressure;BME280_temperature;BME280_humidity;BME280_pressure;Samples;Min_cycle;Max_cycle;Signal;HPM_P1;HPM_P2
2023/08/09 00:02:08;;;;;;;4.40;3.50;;;;;;;;;;5135653;27;20475;-63
2023/08/09 00:04:36;;;;;;;4.23;3.83;;;;;;;;;;5135995;27;20798;-63
2023/08/09 00:07:04;;;;;;;3.60;3.30;;;;;;;;;;5135746;27;20933;-63
2023/08/09 00:09:31;;;;;;;5.23;3.30;;;;;;;;;;5135603;27;20489;-63
2023/08/09 00:11:58;;;;;;;3.60;3.03;;;;;;;;;;5136291;27;20448;-63
2023/08/09 00:14:26;;;;;;;3.63;3.33;;;;;;;;;;5135013;27;20867;-63
2023/08/09 00:16:53;;;;;;;4.67;3.60;;;;;;;;;;5135859;27;20519;-63
2023/08/09 00:19:20;;;;;;;4.33;3.67;;;;;;;;;;5135261;27;20540;-63
2023/08/09 00:21:49;;;;;;;4.20;3.53;;;;;;;;;;5135408;27;20466;-63
2023/08/09 00:24:16;;;;;;;5.43;4.10;;;;;;;;;;5135565;27;20801;-63
2023/08/09 00:26:43;;;;;;;5.33;3.67;;;;;;;;;;5135646;27;20527;-63
2023/08/09 00:29:10;;;;;;;4.17;3.40;;;;;;;;;;5135221;27;20535;-63
2023/08/09 00:31:37;;;;;;;4.30;3.40;;;;;;;;;;5135532;27;20445;-63
2023/08/09 00:34:06;;;;;;;3.80;3.50;;;;;;;;;;5135490;27;20846;-63
2023/08/09 00:36:34;;;;;;;5.87;3.63;;;;;;;;;;5135410;27;20486;-63
2023/08/09 00:39:05;;;;;;;4.50;3.97;;;;;;;;;;5135001;27;20477;-64
2023/08/09 00:41:32;;;;;;;4.70;4.30;;;;;;;;;;5135472;27;20475;-63
2023/08/09 00:44:01;;;;;;;4.23;3.83;;;;;;;;;;5135543;27;20534;-64
2023/08/09 00:46:28;;;;;;;5.20;4.00;;;;;;;;;;5135155;27;20444;-64
2023/08/09 00:48:55;;;;;;;4.60;4.20;;;;;;;;;;5135299;27;20536;-64
2023/08/09 00:51:23;;;;;;;3.80;3.50;;;;;;;;;;5135171;27;20436;-64
2023/08/09 00:53:50;;;;;;;4.73;4.30;;;;;;;;;;5135198;27;20456;-63
2023/08/09 00:56:19;;;;;;;4.00;3.70;;;;;;;;;;5135359;27;20441;-64
2023/08/09 00:58:46;;;;;;;5.20;4.33;;;;;;;;;;5134383;27;20818;-62
2023/08/09 01:01:13;;;;;;;5.20;4.50;;;;;;;;;;5135753;27;20494;-62
2023/08/09 01:03:41;;;;;;;5.57;3.77;;;;;;;;;;5135046;27;20581;-62
2023/08/09 01:06:13;;;;;;;4.63;4.10;;;;;;;;;;5134775;27;20437;-62
2023/08/09 01:08:45;;;;;;;5.33;4.77;;;;;;;;;;5134792;27;20920;-61
2023/08/09 01:11:17;;;;;;;5.23;4.70;;;;;;;;;;5134723;27;20473;-63
2023/08/09 01:13:47;;;;;;;5.10;4.40;;;;;;;;;;5134508;27;20510;-62
2023/08/09 01:16:15;;;;;;;5.93;4.50;;;;;;;;;;5134643;27;20525;-62
2023/08/09 01:18:43;;;;;;;4.67;4.13;;;;;;;;;;5134936;27;20539;-62
2023/08/09 01:21:10;;;;;;;4.73;4.23;;;;;;;;;;5134615;27;20533;-62
2023/08/09 01:23:39;;;;;;;7.03;5.20;;;;;;;;;;5134760;27;20472;-63
2023/08/09 01:26:07;;;;;;;5.33;4.83;;;;;;;;;;5133767;27;20981;-62
2023/08/09 01:28:34;;;;;;;5.90;4.90;;;;;;;;;;5134503;27;20535;-62
2023/08/09 01:31:03;;;;;;;6.30;4.20;;;;;;;;;;5134336;27;20444;-62
2023/08/09 01:33:30;;;;;;;5.50;5.10;;;;;;;;;;5134736;27;20471;-63
2023/08/09 01:36:01;;;;;;;5.23;4.60;;;;;;;;;;5134035;27;20436;-63
2023/08/09 01:38:31;;;;;;;6.00;5.30;;;;;;;;;;5134097;27;20454;-63
2023/08/09 01:41:00;;;;;;;5.33;4.83;;;;;;;;;;5134487;27;20504;-63
2023/08/09 01:43:27;;;;;;;5.20;4.63;;;;;;;;;;5134260;27;20563;-63
2023/08/09 01:45:55;;;;;;;4.87;4.07;;;;;;;;;;5134152;27;20441;-63
2023/08/09 01:48:22;;;;;;;5.70;5.17;;;;;;;;;;5134254;27;20435;-63
2023/08/09 01:50:50;;;;;;;7.30;5.50;;;;;;;;;;5133858;27;20540;-63
2023/08/09 01:53:17;;;;;;;5.80;4.77;;;;;;;;;;5134487;27;20438;-63
2023/08/09 01:55:45;;;;;;;5.80;5.20;;;;;;;;;;5133739;27;20525;-63
2023/08/09 01:58:14;;;;;;;6.23;5.63;;;;;;;;;;5133865;28;20436;-63
2023/08/09 02:00:41;;;;;;;7.40;6.70;;;;;;;;;;5133679;28;20464;-63
2023/08/09 02:03:09;;;;;;;7.20;6.03;;;;;;;;;;5134065;28;20481;-63
2023/08/09 02:05:38;;;;;;;7.00;6.30;;;;;;;;;;5134064;28;20444;-63
2023/08/09 02:08:06;;;;;;;7.43;6.73;;;;;;;;;;5133705;28;20441;-63
2023/08/09 02:10:33;;;;;;;10.43;7.20;;;;;;;;;;5134377;28;20521;-63
2023/08/09 02:13:00;;;;;;;8.53;7.27;;;;;;;;;;5133640;28;20447;-63
2023/08/09 02:15:29;;;;;;;8.73;7.30;;;;;;;;;;5133674;28;20934;-63
2023/08/09 02:17:58;;;;;;;11.23;8.03;;;;;;;;;;5134007;28;20941;-63
2023/08/09 02:20:27;;;;;;;9.40;8.40;;;;;;;;;;5134352;28;20792;-64
2023/08/09 02:22:55;;;;;;;8.40;7.50;;;;;;;;;;5133905;28;20463;-64
2023/08/09 02:25:22;;;;;;;9.33;8.13;;;;;;;;;;5134070;28;20531;-64
2023/08/09 02:27:50;;;;;;;8.93;8.00;;;;;;;;;;5133572;28;20452;-63
2023/08/09 02:30:17;;;;;;;9.17;8.00;;;;;;;;;;5133820;28;20523;-64
2023/08/09 02:32:45;;;;;;;11.70;8.60;;;;;;;;;;5133424;28;21016;-63
2023/08/09 02:35:13;;;;;;;8.50;7.13;;;;;;;;;;5133390;28;20538;-63
2023/08/09 02:37:40;;;;;;;9.00;7.90;;;;;;;;;;5135758;27;20877;-63
2023/08/09 02:40:09;;;;;;;10.43;9.23;;;;;;;;;;5137217;27;20474;-65
2023/08/09 02:42:36;;;;;;;9.80;8.10;;;;;;;;;;5137612;27;20555;-63
2023/08/09 02:45:04;;;;;;;12.47;9.53;;;;;;;;;;5137504;27;20531;-63
2023/08/09 02:47:31;;;;;;;11.83;9.30;;;;;;;;;;5137168;27;20525;-63
2023/08/09 02:49:59;;;;;;;11.60;10.00;;;;;;;;;;5137631;27;20440;-63
2023/08/09 02:52:27;;;;;;;17.13;10.77;;;;;;;;;;5137759;27;20777;-63
2023/08/09 02:54:54;;;;;;;13.00;10.33;;;;;;;;;;5137737;27;20430;-63
2023/08/09 02:57:21;;;;;;;13.10;10.97;;;;;;;;;;5137045;27;20525;-64
2023/08/09 02:59:48;;;;;;;11.87;10.23;;;;;;;;;;5137321;27;20491;-63
2023/08/09 03:02:15;;;;;;;17.37;10.97;;;;;;;;;;5137435;27;20475;-63
2023/08/09 03:04:43;;;;;;;12.50;9.90;;;;;;;;;;5137484;27;20526;-64
2023/08/09 03:07:12;;;;;;;16.17;12.70;;;;;;;;;;5137076;27;20471;-63
2023/08/09 03:09:40;;;;;;;12.57;11.00;;;;;;;;;;5137127;27;20470;-63
2023/08/09 03:12:08;;;;;;;14.60;11.73;;;;;;;;;;5136931;27;20803;-63
2023/08/09 03:14:35;;;;;;;14.53;11.67;;;;;;;;;;5136963;27;20530;-64
2023/08/09 03:17:02;;;;;;;12.40;10.53;;;;;;;;;;5136596;27;21003;-63
2023/08/09 03:19:29;;;;;;;12.47;11.17;;;;;;;;;;5136740;27;20520;-63
2023/08/09 03:21:57;;;;;;;12.00;10.70;;;;;;;;;;5137098;27;20558;-64
2023/08/09 03:24:25;;;;;;;13.47;12.07;;;;;;;;;;5136444;27;20566;-63
2023/08/09 03:26:53;;;;;;;15.07;11.90;;;;;;;;;;5136319;27;20472;-63
2023/08/09 03:29:20;;;;;;;14.70;11.87;;;;;;;;;;5136445;27;20462;-63
2023/08/09 03:31:47;;;;;;;16.13;12.10;;;;;;;;;;5136537;27;20873;-63
2023/08/09 03:34:14;;;;;;;13.97;11.87;;;;;;;;;;5136327;27;20432;-63
2023/08/09 03:36:42;;;;;;;12.43;11.17;;;;;;;;;;5136411;27;20611;-64
2023/08/09 03:39:09;;;;;;;12.17;10.60;;;;;;;;;;5136618;27;20514;-64
2023/08/09 03:41:38;;;;;;;17.63;11.43;;;;;;;;;;5136585;27;20486;-64
2023/08/09 03:44:06;;;;;;;12.80;10.70;;;;;;;;;;5136441;27;20507;-64
2023/08/09 03:46:34;;;;;;;12.23;10.93;;;;;;;;;;5136333;27;21024;-64
2023/08/09 03:49:01;;;;;;;12.30;11.10;;;;;;;;;;5136527;27;20443;-64
2023/08/09 03:51:29;;;;;;;12.33;10.87;;;;;;;;;;5135896;27;20490;-63
2023/08/09 03:53:56;;;;;;;12.70;10.90;;;;;;;;;;5136829;27;20435;-63
2023/08/09 03:56:24;;;;;;;13.83;11.53;;;;;;;;;;5134131;27;20447;-64
2023/08/09 03:58:52;;;;;;;14.60;12.97;;;;;;;;;;5134740;27;20513;-63
2023/08/09 04:01:19;;;;;;;12.23;11.00;;;;;;;;;;5134813;27;20421;-64
2023/08/09 04:03:47;;;;;;;13.30;11.67;;;;;;;;;;5134419;27;21016;-63
2023/08/09 04:06:14;;;;;;;16.80;12.73;;;;;;;;;;5134585;27;20443;-63
2023/08/09 04:08:41;;;;;;;13.27;11.87;;;;;;;;;;5134841;27;20440;-63
2023/08/09 04:11:08;;;;;;;14.70;11.73;;;;;;;;;;5134984;27;20542;-63
2023/08/09 04:13:35;;;;;;;13.70;12.03;;;;;;;;;;5135353;27;20533;-63
2023/08/09 04:16:04;;;;;;;16.80;13.07;;;;;;;;;;5134567;27;20443;-63
2023/08/09 04:18:32;;;;;;;13.80;12.37;;;;;;;;;;5135296;27;20460;-63
2023/08/09 04:20:59;;;;;;;13.33;11.93;;;;;;;;;;5135607;27;20458;-62
2023/08/09 04:23:27;;;;;;;13.70;12.20;;;;;;;;;;5135126;27;20483;-63
2023/08/09 04:25:54;;;;;;;14.00;11.23;;;;;;;;;;5134849;27;20441;-63
2023/08/09 04:28:21;;;;;;;12.70;11.40;;;;;;;;;;5135042;27;20532;-63
2023/08/09 04:30:48;;;;;;;14.20;12.57;;;;;;;;;;5134661;27;20455;-63
2023/08/09 04:33:18;;;;;;;13.00;11.30;;;;;;;;;;5133727;27;20905;-63
2023/08/09 04:35:45;;;;;;;13.07;11.83;;;;;;;;;;5134850;27;20445;-63
2023/08/09 04:38:13;;;;;;;23.03;11.87;;;;;;;;;;5135024;27;20566;-63
2023/08/09 04:40:40;;;;;;;15.67;13.00;;;;;;;;;;5134851;27;20448;-63
2023/08/09 04:43:07;;;;;;;15.40;12.70;;;;;;;;;;5134829;27;20432;-67
2023/08/09 04:45:35;;;;;;;16.90;12.67;;;;;;;;;;5134688;27;20444;-63
2023/08/09 04:48:05;;;;;;;12.43;11.13;;;;;;;;;;5135036;27;20450;-62
2023/08/09 04:50:33;;;;;;;13.93;12.47;;;;;;;;;;5135175;27;20431;-63
2023/08/09 04:53:01;;;;;;;14.10;12.20;;;;;;;;;;5133493;27;20453;-63
2023/08/09 04:55:28;;;;;;;16.10;11.13;;;;;;;;;;5134843;27;20437;-62
2023/08/09 04:57:55;;;;;;;13.63;11.30;;;;;;;;;;5134551;27;20455;-62
2023/08/09 05:00:23;;;;;;;14.77;12.47;;;;;;;;;;5134655;27;20469;-62
2023/08/09 05:02:50;;;;;;;14.20;12.40;;;;;;;;;;5134287;27;20536;-62
2023/08/09 05:05:17;;;;;;;17.10;12.10;;;;;;;;;;5133436;27;20478;-62
2023/08/09 05:07:46;;;;;;;15.68;12.00;;;;;;;;;;5133526;27;20513;-62
2023/08/09 05:10:13;;;;;;;14.57;12.23;;;;;;;;;;5134312;27;20199;-62
2023/08/09 05:12:40;;;;;;;16.80;13.27;;;;;;;;;;5134285;27;20451;-63
2023/08/09 05:15:08;;;;;;;12.97;11.60;;;;;;;;;;5134649;27;20467;-62
2023/08/09 05:17:35;;;;;;;17.27;14.83;;;;;;;;;;5134306;27;20738;-62
2023/08/09 05:20:02;;;;;;;14.57;12.80;;;;;;;;;;5134683;27;20539;-62
2023/08/09 05:22:30;;;;;;;13.17;11.80;;;;;;;;;;5134925;27;20448;-62
2023/08/09 05:24:58;;;;;;;11.77;10.57;;;;;;;;;;5134364;27;20985;-62
2023/08/09 05:27:26;;;;;;;13.20;11.83;;;;;;;;;;5134507;27;20431;-62
2023/08/09 05:29:53;;;;;;;12.50;11.30;;;;;;;;;;5134324;27;20527;-62
2023/08/09 05:32:20;;;;;;;13.90;12.43;;;;;;;;;;5133500;27;20447;-64
2023/08/09 05:34:47;;;;;;;13.97;11.73;;;;;;;;;;5133216;27;20929;-62
2023/08/09 05:37:14;;;;;;;13.70;12.23;;;;;;;;;;5134144;27;20476;-63
2023/08/09 05:39:41;;;;;;;13.70;12.30;;;;;;;;;;5133792;27;20519;-63
2023/08/09 05:42:10;;;;;;;24.03;13.20;;;;;;;;;;5134086;27;20463;-62
2023/08/09 05:44:37;;;;;;;15.47;12.07;;;;;;;;;;5133711;27;20553;-62
2023/08/09 05:47:04;;;;;;;13.57;11.90;;;;;;;;;;5134354;27;20881;-61
2023/08/09 05:49:32;;;;;;;16.80;11.43;;;;;;;;;;5133691;27;20523;-61
2023/08/09 05:51:59;;;;;;;13.53;11.93;;;;;;;;;;5133954;27;20847;-62
2023/08/09 05:54:27;;;;;;;13.10;11.80;;;;;;;;;;5133816;27;20438;-61
2023/08/09 05:56:54;;;;;;;14.40;12.40;;;;;;;;;;5133734;27;20447;-61
2023/08/09 05:59:22;;;;;;;15.13;13.33;;;;;;;;;;5133303;27;20551;-61
2023/08/09 06:01:50;;;;;;;15.17;11.47;;;;;;;;;;5133364;28;20527;-61
2023/08/09 06:04:17;;;;;;;13.73;11.03;;;;;;;;;;5133244;28;20980;-61
2023/08/09 06:06:45;;;;;;;14.33;11.73;;;;;;;;;;5133188;28;21013;-62
2023/08/09 06:09:12;;;;;;;12.70;11.50;;;;;;;;;;5133343;28;20535;-61
2023/08/09 06:11:39;;;;;;;11.50;10.40;;;;;;;;;;5134493;27;20449;-61
2023/08/09 06:14:07;;;;;;;24.97;11.30;;;;;;;;;;5137643;27;20437;-61
2023/08/09 06:16:36;;;;;;;16.00;12.53;;;;;;;;;;5137827;27;20783;-61
2023/08/09 06:19:03;;;;;;;15.45;12.73;;;;;;;;;;5137048;27;20512;-61
2023/08/09 06:21:30;;;;;;;13.63;12.30;;;;;;;;;;5137490;27;20307;-62
2023/08/09 06:23:58;;;;;;;12.67;11.37;;;;;;;;;;5137195;27;20483;-61
2023/08/09 06:26:25;;;;;;;14.50;11.20;;;;;;;;;;5137698;27;20910;-61
2023/08/09 06:28:52;;;;;;;13.77;11.97;;;;;;;;;;5137608;27;20440;-61
2023/08/09 06:31:19;;;;;;;11.87;9.97;;;;;;;;;;5137624;27;20824;-62
2023/08/09 06:33:48;;;;;;;17.47;10.40;;;;;;;;;;5136819;27;20438;-62
2023/08/09 06:36:16;;;;;;;11.40;9.13;;;;;;;;;;5136778;27;20481;-62
2023/08/09 06:38:43;;;;;;;13.07;9.30;;;;;;;;;;5137498;27;20531;-62
2023/08/09 06:41:10;;;;;;;10.83;9.60;;;;;;;;;;5136738;27;20468;-62
2023/08/09 06:43:37;;;;;;;11.27;10.07;;;;;;;;;;5136997;27;20811;-62
2023/08/09 06:46:05;;;;;;;12.30;10.67;;;;;;;;;;5137297;27;20468;-62
2023/08/09 06:48:33;;;;;;;13.93;10.50;;;;;;;;;;5136989;27;20998;-62
2023/08/09 06:51:01;;;;;;;14.13;10.67;;;;;;;;;;5137044;27;20501;-61
2023/08/09 06:53:29;;;;;;;23.77;10.13;;;;;;;;;;5137412;27;20440;-63
2023/08/09 06:55:56;;;;;;;14.30;10.40;;;;;;;;;;5136853;27;20522;-61
2023/08/09 06:58:24;;;;;;;14.80;10.30;;;;;;;;;;5136789;27;20483;-61
2023/08/09 07:00:51;;;;;;;10.53;9.57;;;;;;;;;;5136205;27;20495;-61
2023/08/09 07:03:20;;;;;;;19.30;11.00;;;;;;;;;;5136178;27;20444;-61
2023/08/09 07:05:47;;;;;;;13.57;10.13;;;;;;;;;;5135933;27;20471;-62
2023/08/09 07:08:15;;;;;;;18.30;9.47;;;;;;;;;;5136715;27;20997;-62
2023/08/09 07:10:43;;;;;;;10.13;8.47;;;;;;;;;;5136491;27;20475;-62
2023/08/09 07:13:10;;;;;;;15.23;9.73;;;;;;;;;;5136461;27;20441;-62
2023/08/09 07:15:37;;;;;;;12.87;9.40;;;;;;;;;;5136700;27;20520;-61
2023/08/09 07:18:05;;;;;;;9.60;8.50;;;;;;;;;;5136839;27;20754;-61
2023/08/09 07:20:32;;;;;;;18.33;9.17;;;;;;;;;;5136104;27;20528;-62
2023/08/09 07:22:59;;;;;;;11.57;8.70;;;;;;;;;;5135924;27;20440;-61
2023/08/09 07:25:28;;;;;;;14.20;10.17;;;;;;;;;;5135878;27;20476;-61
2023/08/09 07:27:55;;;;;;;13.10;8.27;;;;;;;;;;5136287;27;20445;-61
2023/08/09 07:30:22;;;;;;;10.33;8.47;;;;;;;;;;5136188;27;20444;-61
2023/08/09 07:32:49;;;;;;;10.67;8.77;;;;;;;;;;5135837;27;20528;-61
2023/08/09 07:35:17;;;;;;;9.07;8.07;;;;;;;;;;5135537;27;20451;-62
2023/08/09 07:37:46;;;;;;;9.27;8.43;;;;;;;;;;5136422;27;20441;-61
2023/08/09 07:40:13;;;;;;;12.30;8.90;;;;;;;;;;5135570;27;21005;-62
2023/08/09 07:42:42;;;;;;;9.80;8.80;;;;;;;;;;5135369;27;20433;-61
2023/08/09 07:45:10;;;;;;;10.17;7.00;;;;;;;;;;5135589;27;20799;-61
2023/08/09 07:47:37;;;;;;;8.30;6.90;;;;;;;;;;5135366;27;20444;-61
2023/08/09 07:50:05;;;;;;;10.23;7.30;;;;;;;;;;5135633;27;20461;-62
2023/08/09 07:52:32;;;;;;;8.00;7.27;;;;;;;;;;5135899;27;20445;-61
2023/08/09 07:55:00;;;;;;;11.13;6.10;;;;;;;;;;5136243;27;20438;-61
2023/08/09 07:57:27;;;;;;;8.13;7.20;;;;;;;;;;5135225;27;20447;-61
2023/08/09 07:59:55;;;;;;;10.20;6.67;;;;;;;;;;5133727;27;20977;-61
2023/08/09 08:02:22;;;;;;;8.10;7.30;;;;;;;;;;5135246;27;20436;-61
2023/08/09 08:04:50;;;;;;;9.67;6.80;;;;;;;;;;5134941;27;20465;-62
2023/08/09 08:07:17;;;;;;;10.10;8.07;;;;;;;;;;5135464;27;20536;-61
2023/08/09 08:09:45;;;;;;;7.50;6.60;;;;;;;;;;5135490;27;20461;-61
2023/08/09 08:12:13;;;;;;;8.73;6.67;;;;;;;;;;5135616;27;20527;-61
2023/08/09 08:14:40;;;;;;;10.40;7.87;;;;;;;;;;5135484;27;20839;-61
2023/08/09 08:17:08;;;;;;;7.87;7.17;;;;;;;;;;5135221;27;20462;-61
2023/08/09 08:19:36;;;;;;;7.97;7.17;;;;;;;;;;5135146;27;20790;-61
2023/08/09 08:22:05;;;;;;;9.20;6.47;;;;;;;;;;5135146;27;20449;-61
2023/08/09 08:24:33;;;;;;;12.33;6.00;;;;;;;;;;5134729;27;20477;-61
2023/08/09 08:27:00;;;;;;;6.93;6.20;;;;;;;;;;5134631;27;20948;-61
2023/08/09 08:29:27;;;;;;;11.03;6.03;;;;;;;;;;5134683;27;20516;-61
2023/08/09 08:31:55;;;;;;;10.73;6.23;;;;;;;;;;5134706;27;20524;-62
2023/08/09 08:34:24;;;;;;;10.57;7.30;;;;;;;;;;5133975;27;20448;-62
2023/08/09 08:36:52;;;;;;;9.10;5.67;;;;;;;;;;5134440;27;20438;-61
2023/08/09 08:39:19;;;;;;;9.40;5.87;;;;;;;;;;5134252;27;20732;-62
2023/08/09 08:41:49;;;;;;;8.67;5.50;;;;;;;;;;5133932;27;20442;-62
2023/08/09 08:44:16;;;;;;;9.00;6.17;;;;;;;;;;5134304;27;20441;-62
2023/08/09 08:46:43;;;;;;;7.77;5.20;;;;;;;;;;5134494;27;20802;-62
2023/08/09 08:49:13;;;;;;;5.20;4.77;;;;;;;;;;5134736;27;20516;-62
2023/08/09 08:51:44;;;;;;;6.30;5.70;;;;;;;;;;5134876;27;20543;-62
2023/08/09 08:54:12;;;;;;;7.03;5.07;;;;;;;;;;5134692;27;20416;-61
2023/08/09 08:56:40;;;;;;;8.83;5.33;;;;;;;;;;5133882;27;20441;-61
2023/08/09 08:59:08;;;;;;;4.60;4.17;;;;;;;;;;5133742;27;20557;-61
2023/08/09 09:01:36;;;;;;;5.13;4.60;;;;;;;;;;5133612;27;20440;-61
2023/08/09 09:04:03;;;;;;;7.93;4.77;;;;;;;;;;5134094;27;20436;-62
2023/08/09 09:06:30;;;;;;;5.13;4.63;;;;;;;;;;5133821;27;21055;-61
2023/08/09 09:08:59;;;;;;;5.50;4.90;;;;;;;;;;5134387;27;20802;-61
2023/08/09 09:11:26;;;;;;;5.90;5.30;;;;;;;;;;5134758;27;20441;-61
2023/08/09 09:13:54;;;;;;;8.23;4.40;;;;;;;;;;5134070;27;20568;-61
2023/08/09 09:16:22;;;;;;;7.03;4.00;;;;;;;;;;5134113;27;20635;-61
2023/08/09 09:18:50;;;;;;;8.27;4.27;;;;;;;;;;5134169;27;20836;-62
2023/08/09 09:21:18;;;;;;;4.83;4.07;;;;;;;;;;5133483;27;20559;-61
2023/08/09 09:23:46;;;;;;;4.20;3.50;;;;;;;;;;5134086;27;20460;-61
2023/08/09 09:26:15;;;;;;;4.37;3.67;;;;;;;;;;5133861;27;20474;-61
2023/08/09 09:28:44;;;;;;;4.90;3.80;;;;;;;;;;5133494;27;20937;-61
2023/08/09 09:31:12;;;;;;;13.03;6.23;;;;;;;;;;5133477;27;20437;-61
2023/08/09 09:33:40;;;;;;;5.20;3.00;;;;;;;;;;5133730;27;20441;-61
2023/08/09 09:36:11;;;;;;;5.00;3.57;;;;;;;;;;5133744;27;20809;-62
2023/08/09 09:38:38;;;;;;;5.23;3.93;;;;;;;;;;5134001;27;20597;-60
2023/08/09 09:41:07;;;;;;;9.93;3.20;;;;;;;;;;5133967;27;20454;-60
2023/08/09 09:43:38;;;;;;;4.90;2.80;;;;;;;;;;5133851;27;20438;-61
2023/08/09 09:46:06;;;;;;;6.13;3.83;;;;;;;;;;5133597;27;20981;-61
2023/08/09 09:48:34;;;;;;;3.97;3.50;;;;;;;;;;5133547;27;20938;-61
2023/08/09 09:51:02;;;;;;;4.00;3.60;;;;;;;;;;5133827;27;20444;-61
2023/08/09 09:53:30;;;;;;;3.53;3.20;;;;;;;;;;5133603;27;20441;-61
2023/08/09 09:55:58;;;;;;;3.33;3.03;;;;;;;;;;5133245;27;20532;-62
2023/08/09 09:58:25;;;;;;;6.73;4.53;;;;;;;;;;5133646;27;20533;-61
2023/08/09 10:00:55;;;;;;;8.80;3.20;;;;;;;;;;5134017;28;20467;-61
2023/08/09 10:03:24;;;;;;;3.57;3.27;;;;;;;;;;5134562;28;20826;-61
2023/08/09 10:05:51;;;;;;;5.30;3.80;;;;;;;;;;5133900;28;20465;-61
2023/08/09 10:08:20;;;;;;;5.87;2.63;;;;;;;;;;5133993;28;20517;-61
2023/08/09 10:10:49;;;;;;;6.30;2.50;;;;;;;;;;5133416;28;21014;-61
2023/08/09 10:13:18;;;;;;;7.40;2.30;;;;;;;;;;5133534;28;20430;-61
2023/08/09 10:15:48;;;;;;;3.70;2.50;;;;;;;;;;5133436;28;20527;-61
2023/08/09 10:18:22;;;;;;;2.37;2.20;;;;;;;;;;5133620;28;20443;-61
2023/08/09 10:20:55;;;;;;;2.63;2.17;;;;;;;;;;5133185;28;20472;-61
2023/08/09 10:23:22;;;;;;;8.30;2.40;;;;;;;;;;5133166;28;20434;-62
2023/08/09 10:25:50;;;;;;;2.43;2.23;;;;;;;;;;5133670;28;20481;-62
2023/08/09 10:28:18;;;;;;;2.40;2.00;;;;;;;;;;5118785;28;20534;-62
2023/08/09 10:30:46;;;;;;;3.00;2.10;;;;;;;;;;5112923;28;20442;-62
2023/08/09 10:33:18;;;;;;;5.57;3.13;;;;;;;;;;5112188;28;20552;-62
2023/08/09 10:35:46;;;;;;;2.43;2.23;;;;;;;;;;5112456;28;20490;-62
2023/08/09 10:38:15;;;;;;;2.70;2.50;;;;;;;;;;5112298;28;20445;-62
2023/08/09 10:40:43;;;;;;;2.50;2.40;;;;;;;;;;5112692;28;20528;-62
2023/08/09 10:43:11;;;;;;;6.80;2.50;;;;;;;;;;5112421;28;20435;-62
2023/08/09 10:45:39;;;;;;;3.40;2.40;;;;;;;;;;5112753;28;20625;-62
2023/08/09 10:48:23;;;;;;;7.17;2.73;;;;;;;;;;5112835;28;20437;-62
2023/08/09 10:51:01;;;;;;;3.83;2.03;;;;;;;;;;5112660;28;20532;-62
2023/08/09 10:53:30;;;;;;;2.70;2.50;;;;;;;;;;5112467;28;20779;-62
2023/08/09 10:55:58;;;;;;;2.43;2.20;;;;;;;;;;5112185;28;20438;-62
2023/08/09 10:58:29;;;;;;;3.17;2.87;;;;;;;;;;5128499;27;20801;-62
2023/08/09 11:00:56;;;;;;;3.10;2.40;;;;;;;;;;5136347;27;20473;-63
2023/08/09 11:03:23;;;;;;;4.57;2.50;;;;;;;;;;5136357;27;20528;-62
2023/08/09 11:05:51;;;;;;;3.47;2.40;;;;;;;;;;5136374;27;20472;-62
2023/08/09 11:08:19;;;;;;;3.60;2.60;;;;;;;;;;5136878;27;20429;-62
2023/08/09 11:10:49;;;;;;;6.57;2.47;;;;;;;;;;5136750;27;20520;-62
2023/08/09 11:13:18;;;;;;;3.43;2.83;;;;;;;;;;5136519;27;20432;-62
2023/08/09 11:15:46;;;;;;;4.85;2.60;;;;;;;;;;5135606;27;20520;-62
2023/08/09 11:18:13;;;;;;;4.10;3.00;;;;;;;;;;5136271;27;20697;-62
2023/08/09 11:20:41;;;;;;;4.03;2.60;;;;;;;;;;5136861;27;20533;-62
2023/08/09 11:23:08;;;;;;;2.83;2.63;;;;;;;;;;5136265;27;20525;-62
2023/08/09 11:25:35;;;;;;;4.10;2.43;;;;;;;;;;5136505;27;20457;-62
2023/08/09 11:28:05;;;;;;;3.53;2.70;;;;;;;;;;5136052;27;20473;-62
2023/08/09 11:30:32;;;;;;;3.10;2.67;;;;;;;;;;5136167;27;20452;-62
2023/08/09 11:33:01;;;;;;;4.60;2.50;;;;;;;;;;5136069;27;20461;-63
2023/08/09 11:35:39;;;;;;;2.90;2.60;;;;;;;;;;5136249;27;20456;-62
2023/08/09 11:38:07;;;;;;;4.97;3.10;;;;;;;;;;5135967;27;20426;-62
2023/08/09 11:40:40;;;;;;;3.07;2.17;;;;;;;;;;5136201;27;20436;-62
2023/08/09 11:43:11;;;;;;;2.50;2.30;;;;;;;;;;5135761;27;20512;-62
2023/08/09 11:45:44;;;;;;;2.40;2.20;;;;;;;;;;5135734;27;20457;-62
2023/08/09 11:48:23;;;;;;;3.00;2.70;;;;;;;;;;5135889;27;20913;-62
2023/08/09 11:50:59;;;;;;;3.37;2.10;;;;;;;;;;5136282;27;20438;-62
2023/08/09 11:53:26;;;;;;;3.57;2.30;;;;;;;;;;5135750;27;20420;-62
2023/08/09 11:55:59;;;;;;;2.07;1.97;;;;;;;;;;5136002;27;20448;-62
2023/08/09 11:58:27;;;;;;;2.70;2.50;;;;;;;;;;5136002;27;20510;-62
2023/08/09 12:00:54;;;;;;;3.07;2.77;;;;;;;;;;5135387;27;20458;-62
2023/08/09 12:03:23;;;;;;;3.10;2.40;;;;;;;;;;5135720;27;20476;-62
2023/08/09 12:05:52;;;;;;;2.80;2.00;;;;;;;;;;5135315;27;20472;-62
2023/08/09 12:08:32;;;;;;;5.13;2.60;;;;;;;;;;5135618;27;20453;-62
2023/08/09 12:10:59;;;;;;;2.30;2.10;;;;;;;;;;5135851;27;20418;-62
2023/08/09 12:13:28;;;;;;;4.10;2.30;;;;;;;;;;5134827;27;20448;-63
2023/08/09 12:15:56;;;;;;;6.87;2.60;;;;;;;;;;5135532;27;20445;-62
2023/08/09 12:18:23;;;;;;;3.07;2.17;;;;;;;;;;5135893;27;20437;-63
2023/08/09 12:20:50;;;;;;;2.53;2.13;;;;;;;;;;5135706;27;20524;-62
2023/08/09 12:23:18;;;;;;;2.50;1.90;;;;;;;;;;5135340;27;20520;-62
2023/08/09 12:25:45;;;;;;;4.30;2.43;;;;;;;;;;5134702;27;20470;-62
2023/08/09 12:28:12;;;;;;;2.83;2.30;;;;;;;;;;5135023;27;20528;-63
2023/08/09 12:30:41;;;;;;;4.23;2.40;;;;;;;;;;5134901;27;20577;-62
2023/08/09 12:33:09;;;;;;;3.25;2.20;;;;;;;;;;5133548;27;20461;-62
2023/08/09 12:35:36;;;;;;;2.93;2.63;;;;;;;;;;5134837;27;20271;-62
2023/08/09 12:38:04;;;;;;;4.40;2.87;;;;;;;;;;5135025;27;20532;-62
2023/08/09 12:40:31;;;;;;;2.93;2.53;;;;;;;;;;5134953;27;20439;-62
2023/08/09 12:42:58;;;;;;;2.27;2.07;;;;;;;;;;5134977;27;20532;-62
2023/08/09 12:45:25;;;;;;;5.53;2.30;;;;;;;;;;5134355;27;20859;-62
2023/08/09 12:47:54;;;;;;;3.27;2.10;;;;;;;;;;5134965;27;20436;-62
2023/08/09 12:50:22;;;;;;;2.40;2.20;;;;;;;;;;5134705;27;20847;-62
2023/08/09 12:52:49;;;;;;;6.93;2.27;;;;;;;;;;5134324;27;20441;-62
2023/08/09 12:55:17;;;;;;;2.80;2.10;;;;;;;;;;5134444;27;20545;-62
2023/08/09 12:57:44;;;;;;;2.93;2.23;;;;;;;;;;5134443;27;20473;-62
2023/08/09 13:00:12;;;;;;;3.90;2.00;;;;;;;;;;5134971;27;20537;-62
2023/08/09 13:02:40;;;;;;;5.17;2.40;;;;;;;;;;5134836;27;20426;-62
2023/08/09 13:05:09;;;;;;;6.28;2.53;;;;;;;;;;5134595;27;20426;-61
2023/08/09 13:07:36;;;;;;;2.50;1.73;;;;;;;;;;5134289;27;20215;-61
2023/08/09 13:10:06;;;;;;;3.80;2.43;;;;;;;;;;5134443;27;20438;-62
2023/08/09 13:12:33;;;;;;;4.10;2.30;;;;;;;;;;5134259;27;20438;-61
2023/08/09 13:15:00;;;;;;;4.37;2.10;;;;;;;;;;5134621;27;20436;-62
2023/08/09 13:17:27;;;;;;;2.70;2.47;;;;;;;;;;5134273;27;20979;-62
2023/08/09 13:19:55;;;;;;;3.30;2.33;;;;;;;;;;5134437;27;20457;-62
2023/08/09 13:22:23;;;;;;;2.40;2.20;;;;;;;;;;5134396;27;20533;-62
2023/08/09 13:24:50;;;;;;;2.40;1.93;;;;;;;;;;5134933;27;20434;-63
2023/08/09 13:27:18;;;;;;;3.53;2.00;;;;;;;;;;5134284;27;20473;-63
2023/08/09 13:29:45;;;;;;;4.53;2.30;;;;;;;;;;5134193;27;20805;-61
2023/08/09 13:32:12;;;;;;;2.60;2.40;;;;;;;;;;5133875;27;20475;-62
2023/08/09 13:34:39;;;;;;;3.47;2.13;;;;;;;;;;5133851;27;20453;-62
2023/08/09 13:37:07;;;;;;;2.33;2.10;;;;;;;;;;5134526;27;20520;-61
2023/08/09 13:39:35;;;;;;;2.23;2.07;;;;;;;;;;5134685;27;20481;-62
2023/08/09 13:42:02;;;;;;;2.23;2.13;;;;;;;;;;5133965;27;20503;-62
2023/08/09 13:44:30;;;;;;;2.30;2.10;;;;;;;;;;5134629;27;20521;-62
2023/08/09 13:46:57;;;;;;;2.20;1.97;;;;;;;;;;5133541;27;20475;-62
2023/08/09 13:49:24;;;;;;;2.70;2.13;;;;;;;;;;5133848;27;20539;-62
2023/08/09 13:51:51;;;;;;;2.10;2.00;;;;;;;;;;5133919;27;20484;-62
2023/08/09 13:54:18;;;;;;;3.63;2.77;;;;;;;;;;5133941;27;20430;-62
2023/08/09 13:56:47;;;;;;;2.57;2.10;;;;;;;;;;5134006;27;20456;-62
2023/08/09 13:59:15;;;;;;;3.30;2.20;;;;;;;;;;5133987;27;20691;-62
2023/08/09 14:01:42;;;;;;;3.70;2.80;;;;;;;;;;5133680;27;20526;-62
2023/08/09 14:04:10;;;;;;;2.60;2.40;;;;;;;;;;5134206;28;20867;-62
2023/08/09 14:06:37;;;;;;;5.00;2.57;;;;;;;;;;5133949;28;20509;-62
2023/08/09 14:09:05;;;;;;;3.70;2.97;;;;;;;;;;5133724;28;20628;-62
2023/08/09 14:11:33;;;;;;;6.17;3.00;;;;;;;;;;5133784;28;20522;-62
2023/08/09 14:14:04;;;;;;;3.43;2.90;;;;;;;;;;5133980;28;20524;-62
2023/08/09 14:16:32;;;;;;;3.70;2.70;;;;;;;;;;5133636;28;20435;-62
2023/08/09 14:18:59;;;;;;;3.00;2.80;;;;;;;;;;5133730;28;20813;-62
2023/08/09 14:21:27;;;;;;;2.87;2.67;;;;;;;;;;5133426;28;20442;-62
2023/08/09 14:23:54;;;;;;;4.00;2.83;;;;;;;;;;5133944;28;20435;-62
2023/08/09 14:26:21;;;;;;;4.60;3.37;;;;;;;;;;5133555;28;20562;-62
2023/08/09 14:28:48;;;;;;;3.40;3.10;;;;;;;;;;5134002;28;20877;-62
2023/08/09 14:31:17;;;;;;;4.73;3.00;;;;;;;;;;5133951;28;20438;-62
2023/08/09 14:33:44;;;;;;;3.23;2.70;;;;;;;;;;5136304;27;20458;-62
2023/08/09 14:36:11;;;;;;;3.30;2.93;;;;;;;;;;5137598;27;20527;-62
2023/08/09 14:38:38;;;;;;;4.70;2.67;;;;;;;;;;5137615;27;20449;-63